Time;durP1;ratioP1;P1;durP2;ratioP2;P2;SDS_P1;SDS_P2;PMS_P1;PMS_P2;Temp;Humidity;BMP_temperature;BMP_pressure;BME280_temperature;BME280_humidity;BME280_pressure;Samples;Min_cycle;Max_cycle;Signal;HPM_P1;HPM_P2
2022/07/02 00:01:52;;;;;;;10.10;7.15;;;21.90;71.60;;;;;;1990558;72;21014;-66
2022/07/02 00:04:24;;;;;;;10.72;7.20;;;21.90;71.80;;;;;;1990604;72;21002;-65
2022/07/02 00:06:53;;;;;;;9.15;6.70;;;21.90;72.00;;;;;;1990483;72;21091;-65
2022/07/02 00:09:23;;;;;;;8.10;5.87;;;21.90;71.80;;;;;;1990617;72;21014;-66
2022/07/02 00:11:52;;;;;;;11.97;6.92;;;21.90;72.00;;;;;;1990553;72;21063;-66
2022/07/02 00:14:22;;;;;;;7.00;5.60;;;21.90;71.60;;;;;;1990633;72;21075;-67
2022/07/02 00:16:53;;;;;;;7.95;5.72;;;21.90;71.50;;;;;;1990582;72;21018;-66
2022/07/02 00:19:23;;;;;;;10.20;6.78;;;21.90;71.70;;;;;;1990501;72;21014;-66
2022/07/02 00:21:54;;;;;;;7.62;5.85;;;21.80;71.10;;;;;;1990572;72;21073;-66
2022/07/02 00:24:24;;;;;;;8.98;5.22;;;21.80;71.50;;;;;;1990526;72;21022;-66
2022/07/02 00:26:57;;;;;;;6.83;5.37;;;21.60;71.90;;;;;;1990440;72;21014;-66
2022/07/02 00:29:38;;;;;;;9.38;5.65;;;21.50;72.60;;;;;;1990600;72;21014;-66
2022/07/02 00:32:08;;;;;;;6.35;4.85;;;21.50;72.80;;;;;;1989143;72;21546;-66
2022/07/02 00:34:39;;;;;;;7.85;5.87;;;21.50;72.90;;;;;;1990588;72;21003;-66
2022/07/02 00:37:08;;;;;;;8.35;5.85;;;21.60;72.90;;;;;;1989928;72;21131;-66
2022/07/02 00:39:38;;;;;;;9.30;5.83;;;21.70;72.80;;;;;;1990428;71;21006;-66
2022/07/02 00:42:09;;;;;;;9.35;5.42;;;21.60;72.70;;;;;;1990397;72;21038;-66
2022/07/02 00:44:38;;;;;;;6.42;5.30;;;21.60;72.80;;;;;;1990634;72;20986;-66
2022/07/02 00:47:09;;;;;;;7.95;5.87;;;21.60;72.70;;;;;;1990499;72;21080;-66
2022/07/02 00:49:39;;;;;;;8.30;5.30;;;21.60;72.80;;;;;;1990346;72;21073;-66
2022/07/02 00:52:09;;;;;;;6.40;5.40;;;21.60;73.00;;;;;;1990397;72;21046;-66
2022/07/02 00:54:38;;;;;;;7.15;5.37;;;21.60;73.00;;;;;;1990470;72;21038;-66
2022/07/02 00:57:08;;;;;;;9.78;5.47;;;21.60;72.80;;;;;;1987008;71;21108;-66
2022/07/02 00:59:37;;;;;;;7.87;5.15;;;21.50;72.70;;;;;;1980209;72;21096;-67
2022/07/02 01:02:08;;;;;;;11.88;6.55;;;21.40;72.80;;;;;;1980322;72;21006;-67
2022/07/02 01:04:39;;;;;;;10.65;5.37;;;21.30;73.00;;;;;;1979962;72;21093;-67
2022/07/02 01:07:11;;;;;;;9.45;5.72;;;21.30;73.00;;;;;;1980341;72;20978;-67
2022/07/02 01:12:35;;;;;;;6.45;5.05;;;21.30;73.10;;;;;;1980287;72;21006;-67
2022/07/02 01:15:06;;;;;;;7.33;5.97;;;21.20;73.20;;;;;;1980382;72;21019;-67
2022/07/02 01:17:35;;;;;;;8.10;5.65;;;21.20;73.30;;;;;;1980273;72;21084;-67
2022/07/02 01:20:05;;;;;;;11.80;5.70;;;21.20;73.40;;;;;;1980315;72;21026;-67
2022/07/02 01:22:39;;;;;;;8.68;5.42;;;21.20;73.60;;;;;;1980294;72;21038;-67
2022/07/02 01:25:09;;;;;;;10.80;5.17;;;21.30;73.40;;;;;;1980483;72;21119;-67
2022/07/02 01:27:39;;;;;;;7.55;5.40;;;21.20;73.10;;;;;;1980177;72;21086;-67
2022/07/02 01:30:09;;;;;;;10.15;5.17;;;21.20;73.20;;;;;;1980214;72;21061;-67
2022/07/02 01:32:39;;;;;;;9.83;5.55;;;21.10;73.50;;;;;;1980249;72;21072;-67
2022/07/02 01:35:09;;;;;;;8.90;7.58;;;21.20;73.90;;;;;;1980301;72;21072;-67
2022/07/02 01:37:42;;;;;;;7.05;5.03;;;21.20;73.90;;;;;;1980274;72;21084;-67
2022/07/02 01:40:11;;;;;;;9.13;5.85;;;21.20;73.90;;;;;;1980273;72;21084;-67
2022/07/02 01:42:40;;;;;;;6.05;5.45;;;21.20;73.90;;;;;;1980267;72;21019;-67
2022/07/02 01:45:10;;;;;;;7.62;6.00;;;21.20;74.10;;;;;;1980281;72;21010;-67
2022/07/02 01:47:39;;;;;;;9.20;7.47;;;21.10;74.40;;;;;;1980135;72;21076;-67
2022/07/02 01:50:09;;;;;;;11.75;8.10;;;21.20;74.10;;;;;;1980214;72;21038;-67
2022/07/02 01:52:39;;;;;;;11.15;7.12;;;21.10;73.90;;;;;;1980292;72;21069;-67
2022/07/02 01:55:08;;;;;;;11.22;6.80;;;21.00;73.90;;;;;;1980285;72;21010;-67
2022/07/02 01:57:37;;;;;;;9.55;6.20;;;21.00;74.20;;;;;;1983333;72;21038;-67
2022/07/02 02:00:09;;;;;;;11.08;7.60;;;21.00;74.30;;;;;;1990697;72;21010;-67
2022/07/02 02:02:38;;;;;;;8.53;6.17;;;20.90;74.40;;;;;;1990613;71;21038;-67
2022/07/02 02:05:08;;;;;;;7.45;6.05;;;20.90;74.60;;;;;;1990707;72;21014;-67
2022/07/02 02:07:37;;;;;;;8.33;6.50;;;20.90;75.20;;;;;;1990503;72;20990;-67
2022/07/02 02:10:07;;;;;;;8.83;6.20;;;21.00;75.30;;;;;;1990596;72;21022;-67
2022/07/02 02:12:37;;;;;;;8.60;6.00;;;21.00;75.10;;;;;;1990486;72;21096;-67
2022/07/02 02:15:07;;;;;;;6.87;6.05;;;21.10;75.10;;;;;;1990592;72;20987;-67
2022/07/02 02:17:36;;;;;;;7.92;5.47;;;21.10;75.20;;;;;;1990612;72;21014;-66
2022/07/02 02:20:06;;;;;;;9.60;5.92;;;21.10;75.10;;;;;;1990537;72;21080;-67
2022/07/02 02:22:36;;;;;;;6.58;5.25;;;21.20;75.40;;;;;;1990570;71;21080;-67
2022/07/02 02:25:05;;;;;;;7.83;6.28;;;21.20;75.70;;;;;;1990532;71;20990;-67
2022/07/02 02:27:35;;;;;;;7.58;5.78;;;21.30;75.50;;;;;;1990629;72;21030;-67
2022/07/02 02:30:05;;;;;;;11.55;5.60;;;21.30;75.00;;;;;;1990482;72;21080;-67
2022/07/02 02:32:36;;;;;;;13.85;5.97;;;21.30;75.40;;;;;;1990687;72;21100;-67
2022/07/02 02:35:06;;;;;;;10.23;5.78;;;21.30;75.40;;;;;;1990669;72;21432;-67
2022/07/02 02:37:36;;;;;;;8.30;6.10;;;21.30;75.50;;;;;;1990610;72;21084;-67
2022/07/02 02:40:06;;;;;;;7.10;5.20;;;21.40;75.40;;;;;;1990519;72;20987;-67
2022/07/02 02:42:35;;;;;;;8.18;5.65;;;21.40;75.60;;;;;;1990528;72;21011;-67
2022/07/02 02:45:05;;;;;;;14.33;5.70;;;21.50;75.90;;;;;;1990523;72;21013;-67
2022/07/02 02:47:34;;;;;;;10.13;5.85;;;21.60;75.90;;;;;;1990529;72;21006;-67
2022/07/02 02:50:04;;;;;;;7.25;5.42;;;21.70;75.70;;;;;;1990487;72;21006;-67
2022/07/02 02:52:33;;;;;;;16.55;6.22;;;21.80;76.10;;;;;;1990509;72;21014;-67
2022/07/02 02:55:03;;;;;;;11.10;6.08;;;22.00;75.60;;;;;;1990559;72;21432;-67
2022/07/02 02:57:32;;;;;;;8.73;6.58;;;22.00;75.50;;;;;;1990604;72;21085;-67
2022/07/02 03:00:02;;;;;;;12.98;6.45;;;22.10;75.70;;;;;;1990663;72;21042;-67
2022/07/02 03:02:31;;;;;;;13.93;7.33;;;22.10;75.80;;;;;;1990461;72;20986;-67
2022/07/02 03:05:01;;;;;;;18.12;8.00;;;22.20;75.90;;;;;;1990495;72;21069;-67
2022/07/02 03:07:30;;;;;;;19.87;7.45;;;22.20;75.70;;;;;;1990479;72;21053;-67
2022/07/02 03:09:59;;;;;;;14.28;7.05;;;22.30;75.80;;;;;;1990651;72;20982;-67
2022/07/02 03:12:28;;;;;;;11.68;7.85;;;22.30;76.30;;;;;;1990482;72;21010;-67
2022/07/02 03:14:57;;;;;;;13.15;7.87;;;22.30;75.50;;;;;;1990619;72;21010;-67
2022/07/02 03:17:27;;;;;;;16.52;8.10;;;22.30;75.40;;;;;;1990645;72;20990;-67
2022/07/02 03:19:56;;;;;;;12.73;7.78;;;22.30;75.50;;;;;;1990611;72;21018;-68
2022/07/02 03:22:25;;;;;;;14.03;8.30;;;22.40;75.50;;;;;;1990615;72;21022;-68
2022/07/02 03:24:55;;;;;;;16.05;8.78;;;22.40;75.40;;;;;;1990474;72;21014;-68
2022/07/02 03:27:24;;;;;;;21.42;11.15;;;22.40;75.20;;;;;;1990612;72;21014;-68
2022/07/02 03:29:54;;;;;;;19.75;9.58;;;22.50;75.20;;;;;;1990579;72;21026;-67
2022/07/02 03:32:29;;;;;;;11.70;8.43;;;22.50;75.10;;;;;;1990568;72;21011;-68
2022/07/02 03:34:54;;;;;;;15.70;7.85;;;22.50;75.10;;;;;;1989714;72;21061;-67
2022/07/02 03:37:27;;;;;;;14.87;7.87;;;22.50;75.10;;;;;;1990533;72;21445;-67
2022/07/02 03:39:55;;;;;;;32.80;14.05;;;22.60;75.40;;;;;;1990039;72;21124;-67
2022/07/02 03:42:24;;;;;;;25.68;13.70;;;22.60;75.50;;;;;;1990467;72;21006;-68
2022/07/02 03:44:54;;;;;;;12.25;7.62;;;22.50;75.50;;;;;;1990498;72;21006;-67
2022/07/02 03:47:23;;;;;;;12.33;6.83;;;22.50;75.30;;;;;;1990545;72;21080;-67
2022/07/02 03:49:53;;;;;;;10.85;7.47;;;22.50;75.20;;;;;;1990456;72;21010;-67
2022/07/02 03:52:22;;;;;;;13.15;7.37;;;22.40;75.60;;;;;;1990406;72;21010;-68
2022/07/02 03:54:51;;;;;;;10.43;6.95;;;22.40;76.10;;;;;;1990469;72;21045;-68
2022/07/02 03:57:21;;;;;;;9.55;6.28;;;22.30;76.00;;;;;;1990522;71;21229;-68
2022/07/02 03:59:56;;;;;;;13.38;6.62;;;22.30;75.90;;;;;;1978713;72;21051;-68
2022/07/02 04:02:33;;;;;;;9.75;6.25;;;22.40;75.50;;;;;;1896786;74;21478;-68
2022/07/02 04:05:02;;;;;;;9.40;6.47;;;22.40;75.30;;;;;;1897958;75;21069;-68
2022/07/02 04:07:32;;;;;;;8.65;7.00;;;22.40;75.10;;;;;;1897848;75;21120;-68
2022/07/02 04:10:01;;;;;;;10.18;6.90;;;22.40;75.40;;;;;;1897812;75;21092;-68
2022/07/02 04:12:31;;;;;;;11.00;6.35;;;22.40;75.40;;;;;;1897770;75;21027;-69
2022/07/02 04:15:00;;;;;;;9.43;6.92;;;22.40;75.50;;;;;;1897663;75;21007;-69
2022/07/02 04:17:29;;;;;;;9.30;6.72;;;22.50;75.50;;;;;;1897820;75;21006;-69
2022/07/02 04:19:58;;;;;;;12.95;7.28;;;22.50;75.50;;;;;;1897707;75;21080;-68
2022/07/02 04:22:28;;;;;;;8.55;6.03;;;22.50;75.00;;;;;;1897802;75;21035;-69
2022/07/02 04:24:58;;;;;;;12.80;7.20;;;22.60;74.90;;;;;;1897761;75;21101;-68
2022/07/02 04:27:27;;;;;;;8.65;6.72;;;22.70;75.00;;;;;;1897653;75;21006;-69
2022/07/02 04:29:56;;;;;;;12.43;6.65;;;22.80;74.60;;;;;;1897669;75;21096;-69
2022/07/02 04:32:25;;;;;;;28.83;7.33;;;22.90;74.70;;;;;;1897652;75;21027;-69
2022/07/02 04:34:54;;;;;;;9.83;5.83;;;23.00;74.60;;;;;;1897876;75;21026;-69
2022/07/02 04:37:24;;;;;;;9.98;5.80;;;23.10;73.50;;;;;;1897834;75;21062;-69
2022/07/02 04:39:53;;;;;;;9.43;6.12;;;23.10;73.10;;;;;;1897779;75;21011;-69
2022/07/02 04:42:44;;;;;;;8.60;5.55;;;23.20;72.70;;;;;;1897774;75;21516;-69
2022/07/02 04:45:26;;;;;;;19.30;7.12;;;23.30;72.20;;;;;;1853062;76;21094;-68
2022/07/02 04:47:55;;;;;;;10.38;6.05;;;23.30;71.90;;;;;;1852927;77;21045;-68
2022/07/02 04:50:25;;;;;;;7.67;5.62;;;23.40;71.50;;;;;;1852877;76;21147;-68
2022/07/02 04:52:54;;;;;;;8.50;4.90;;;23.50;71.40;;;;;;1852933;76;21077;-69
2022/07/02 04:55:23;;;;;;;12.88;5.78;;;23.50;70.70;;;;;;1853116;77;21088;-69
2022/07/02 04:57:53;;;;;;;10.18;5.60;;;23.50;71.20;;;;;;1853063;77;21029;-69
2022/07/02 05:00:22;;;;;;;9.98;6.25;;;23.70;70.50;;;;;;1853217;77;21088;-69
2022/07/02 05:02:52;;;;;;;11.57;6.53;;;23.80;70.10;;;;;;1853091;76;21095;-70
2022/07/02 05:05:21;;;;;;;8.13;5.28;;;23.80;69.60;;;;;;1853065;77;21033;-70
2022/07/02 05:07:51;;;;;;;13.65;5.12;;;23.80;69.70;;;;;;1853075;77;21120;-70
2022/07/02 05:10:20;;;;;;;26.37;16.97;;;23.90;69.70;;;;;;1853002;77;21080;-69
2022/07/02 05:12:50;;;;;;;13.90;6.78;;;23.90;69.40;;;;;;1852966;76;21115;-69
2022/07/02 05:15:19;;;;;;;14.70;5.45;;;24.00;68.80;;;;;;1852889;76;21045;-69
2022/07/02 05:17:49;;;;;;;13.30;4.78;;;24.00;68.20;;;;;;1852910;76;21033;-69
2022/07/02 05:20:18;;;;;;;11.10;6.22;;;23.90;67.30;;;;;;1853052;76;21480;-68
2022/07/02 05:22:52;;;;;;;11.43;5.37;;;23.90;67.00;;;;;;1853037;76;21045;-66
2022/07/02 05:25:40;;;;;;;7.25;4.90;;;23.90;66.30;;;;;;1803618;78;21101;-68
2022/07/02 05:28:09;;;;;;;10.93;4.70;;;23.80;66.60;;;;;;1803830;78;21017;-67
2022/07/02 05:30:39;;;;;;;6.60;5.00;;;23.90;66.30;;;;;;1803774;79;21041;-67
2022/07/02 05:33:09;;;;;;;8.23;4.62;;;24.00;65.90;;;;;;1804021;78;21041;-67
2022/07/02 05:35:38;;;;;;;8.70;4.30;;;24.00;65.10;;;;;;1803838;79;21037;-67
2022/07/02 05:38:07;;;;;;;11.83;4.95;;;24.00;64.70;;;;;;1803859;79;21033;-68
2022/07/02 05:40:37;;;;;;;10.63;4.22;;;24.00;64.30;;;;;;1803843;78;21557;-67
2022/07/02 05:43:07;;;;;;;12.60;4.97;;;24.00;64.60;;;;;;1803869;79;21017;-67
2022/07/02 05:45:37;;;;;;;19.57;5.30;;;24.10;64.40;;;;;;1803863;79;21065;-67
2022/07/02 05:48:07;;;;;;;8.40;4.15;;;24.20;64.50;;;;;;1803774;79;21041;-68
2022/07/02 05:50:36;;;;;;;15.58;4.50;;;24.20;63.90;;;;;;1803692;79;21037;-67
2022/07/02 05:53:05;;;;;;;11.00;3.83;;;24.30;63.70;;;;;;1803849;78;21037;-67
2022/07/02 05:55:35;;;;;;;10.20;4.28;;;24.40;62.00;;;;;;1803690;78;21038;-67
2022/07/02 05:58:04;;;;;;;9.58;4.28;;;24.50;61.50;;;;;;1803767;79;21045;-68
2022/07/02 06:00:42;;;;;;;10.93;4.17;;;24.50;61.10;;;;;;1803764;79;21021;-68
2022/07/02 06:03:12;;;;;;;10.53;3.98;;;24.50;61.10;;;;;;1885758;75;21086;-68
2022/07/02 06:08:29;;;;;;;11.20;3.47;;;24.50;60.60;;;;;;1887151;76;21045;-67
2022/07/02 06:10:59;;;;;;;8.43;3.55;;;24.60;60.40;;;;;;1926292;73;21511;-67
2022/07/02 06:13:28;;;;;;;8.13;3.52;;;24.60;59.30;;;;;;1909710;75;21502;-67
2022/07/02 06:15:57;;;;;;;7.87;3.72;;;24.60;59.30;;;;;;1891529;76;21039;-67
2022/07/02 06:18:27;;;;;;;17.23;4.83;;;24.60;59.70;;;;;;1886948;76;21049;-67
2022/07/02 06:20:56;;;;;;;8.68;3.65;;;24.80;59.70;;;;;;1926498;74;21068;-67
2022/07/02 06:23:26;;;;;;;5.67;3.62;;;24.90;58.90;;;;;;1909698;75;21055;-68
2022/07/02 06:25:55;;;;;;;12.73;5.47;;;24.90;58.50;;;;;;1891547;76;21102;-67
2022/07/02 06:28:25;;;;;;;11.12;5.25;;;24.80;58.30;;;;;;1886890;76;21119;-67
2022/07/02 06:30:54;;;;;;;14.68;5.45;;;24.80;58.20;;;;;;1926259;74;21025;-67
2022/07/02 06:33:23;;;;;;;13.70;4.45;;;24.80;58.60;;;;;;1909738;75;21027;-67
2022/07/02 06:35:53;;;;;;;6.33;3.40;;;24.80;58.10;;;;;;1891558;76;21093;-67
2022/07/02 06:38:22;;;;;;;6.28;3.30;;;24.80;58.10;;;;;;1887081;76;21013;-67
2022/07/02 06:40:53;;;;;;;7.92;3.37;;;24.80;56.80;;;;;;1926180;74;21029;-67
2022/07/02 06:43:24;;;;;;;8.90;3.10;;;24.80;57.60;;;;;;1909676;75;21560;-67
2022/07/02 06:45:53;;;;;;;10.95;3.72;;;24.70;57.70;;;;;;1891514;76;21063;-67
2022/07/02 06:48:22;;;;;;;10.20;2.98;;;24.70;57.50;;;;;;1886871;76;21033;-67
2022/07/02 06:50:52;;;;;;;7.87;3.60;;;24.80;57.30;;;;;;1926197;74;21084;-67
2022/07/02 06:53:21;;;;;;;7.17;3.15;;;24.90;57.90;;;;;;1909673;75;21043;-67
2022/07/02 06:55:53;;;;;;;8.15;3.35;;;25.00;57.80;;;;;;1891543;76;21038;-67
2022/07/02 06:58:21;;;;;;;8.88;3.35;;;25.10;57.60;;;;;;1886892;76;21022;-68
2022/07/02 07:00:50;;;;;;;5.17;2.92;;;25.20;56.70;;;;;;1925992;74;21080;-67
2022/07/02 07:03:21;;;;;;;5.85;3.27;;;25.30;58.40;;;;;;1905573;75;21056;-66
2022/07/02 07:05:52;;;;;;;7.53;2.83;;;25.30;58.20;;;;;;1860799;76;21465;-67
2022/07/02 07:08:21;;;;;;;4.00;3.05;;;25.30;58.30;;;;;;1862115;77;21044;-66
2022/07/02 07:10:50;;;;;;;7.00;3.20;;;25.30;58.00;;;;;;1894490;75;21031;-66
2022/07/02 07:13:20;;;;;;;3.25;2.40;;;25.40;57.30;;;;;;1879340;75;21098;-66
2022/07/02 07:15:49;;;;;;;13.50;3.00;;;25.40;57.30;;;;;;1879225;75;21097;-65
2022/07/02 07:18:19;;;;;;;4.37;2.60;;;25.50;57.40;;;;;;1878792;75;21066;-66
2022/07/02 07:20:49;;;;;;;4.87;1.98;;;25.60;56.30;;;;;;1879246;75;21030;-66
2022/07/02 07:23:19;;;;;;;8.40;2.80;;;25.60;54.80;;;;;;1878984;75;21099;-66
2022/07/02 07:25:48;;;;;;;7.37;2.85;;;25.50;55.50;;;;;;1879040;76;21066;-68
2022/07/02 07:28:18;;;;;;;5.33;2.85;;;25.50;55.90;;;;;;1879332;75;21140;-67
2022/07/02 07:30:47;;;;;;;11.00;3.45;;;25.60;56.60;;;;;;1879070;75;21089;-67
2022/07/02 07:33:16;;;;;;;3.92;2.72;;;25.80;56.10;;;;;;1878925;75;21635;-67
2022/07/02 07:35:45;;;;;;;6.62;2.72;;;25.90;55.90;;;;;;1879011;76;21103;-66
2022/07/02 07:38:15;;;;;;;17.02;3.00;;;26.10;54.80;;;;;;1877396;76;21361;-65
2022/07/02 07:40:44;;;;;;;9.63;3.70;;;26.20;54.50;;;;;;1878168;76;21019;-66
2022/07/02 07:43:13;;;;;;;17.45;4.28;;;26.30;53.80;;;;;;1879008;75;21036;-66
2022/07/02 07:45:42;;;;;;;7.33;3.22;;;26.30;53.50;;;;;;1879118;75;21043;-66
2022/07/02 07:48:12;;;;;;;10.85;3.08;;;26.30;53.20;;;;;;1879263;75;21019;-66
2022/07/02 07:50:42;;;;;;;10.43;2.52;;;26.20;53.20;;;;;;1879167;76;21060;-66
2022/07/02 07:53:11;;;;;;;3.83;2.50;;;26.20;52.10;;;;;;1879138;75;21055;-66
2022/07/02 07:55:40;;;;;;;9.73;3.70;;;26.20;53.00;;;;;;1879231;75;21101;-66
2022/07/02 07:58:10;;;;;;;9.58;3.00;;;26.00;53.30;;;;;;1878061;75;21090;-66
2022/07/02 08:00:44;;;;;;;4.95;2.83;;;26.10;54.20;;;;;;1869383;73;21130;-66
2022/07/02 08:03:14;;;;;;;9.88;2.95;;;26.20;54.50;;;;;;1873598;76;21026;-66
2022/07/02 08:05:45;;;;;;;4.67;2.30;;;26.30;53.80;;;;;;1873723;76;21095;-66
2022/07/02 08:08:17;;;;;;;4.75;2.62;;;26.30;53.60;;;;;;1873385;76;21519;-66
2022/07/02 08:10:46;;;;;;;10.45;4.03;;;26.40;53.80;;;;;;1873601;75;21093;-65
2022/07/02 08:13:16;;;;;;;6.08;4.30;;;26.50;53.70;;;;;;1873513;76;21068;-65
2022/07/02 08:15:45;;;;;;;7.10;2.90;;;26.60;53.30;;;;;;1895599;75;21134;-65
2022/07/02 08:18:15;;;;;;;5.78;3.00;;;26.70;52.60;;;;;;1874204;76;21144;-65
2022/07/02 08:20:58;;;;;;;10.10;3.77;;;26.80;52.20;;;;;;1888494;75;21034;-65
2022/07/02 08:23:35;;;;;;;3.75;3.30;;;26.90;52.20;;;;;;1848783;77;21093;-68
2022/07/02 08:26:04;;;;;;;4.60;2.42;;;27.00;51.80;;;;;;1915651;75;21178;-68
2022/07/02 08:28:33;;;;;;;9.58;3.83;;;27.00;51.80;;;;;;1883009;76;21103;-69
2022/07/02 08:31:02;;;;;;;8.08;2.87;;;27.00;51.60;;;;;;1883155;75;21036;-69
2022/07/02 08:33:32;;;;;;;5.50;2.25;;;26.80;52.30;;;;;;1883523;75;21094;-69
2022/07/02 08:36:02;;;;;;;5.33;2.70;;;26.80;52.20;;;;;;1883195;76;21019;-69
2022/07/02 08:38:31;;;;;;;9.10;3.98;;;26.80;51.30;;;;;;1883394;75;21101;-68
2022/07/02 08:41:01;;;;;;;5.90;2.70;;;26.80;51.80;;;;;;1883747;76;21098;-68
2022/07/02 08:43:32;;;;;;;8.85;2.77;;;26.80;52.20;;;;;;1883546;76;21040;-69
2022/07/02 08:46:04;;;;;;;4.05;2.30;;;26.90;51.80;;;;;;1883678;75;21101;-68
2022/07/02 08:48:37;;;;;;;4.08;2.27;;;27.00;51.70;;;;;;1883663;75;21098;-68
2022/07/02 08:51:10;;;;;;;7.03;2.50;;;27.10;50.50;;;;;;1883553;75;21059;-67
2022/07/02 08:53:40;;;;;;;4.75;2.77;;;27.10;51.10;;;;;;1883889;75;21027;-67
2022/07/02 08:56:13;;;;;;;6.12;2.12;;;27.10;49.50;;;;;;1883504;75;21087;-68
2022/07/02 08:58:42;;;;;;;4.22;2.00;;;27.10;49.10;;;;;;1883507;76;21040;-66
2022/07/02 09:01:12;;;;;;;9.90;2.37;;;27.10;49.60;;;;;;1883732;76;21105;-67
2022/07/02 09:03:42;;;;;;;5.53;2.20;;;27.10;48.00;;;;;;1883757;75;21043;-67
2022/07/02 09:06:11;;;;;;;3.98;2.17;;;27.10;48.60;;;;;;1883778;76;21201;-67
2022/07/02 09:08:42;;;;;;;7.75;2.52;;;27.10;47.30;;;;;;1883707;75;21016;-67
2022/07/02 09:11:12;;;;;;;3.55;2.30;;;27.20;48.20;;;;;;1883734;76;21031;-68
2022/07/02 09:13:41;;;;;;;7.65;2.20;;;27.20;48.40;;;;;;1883857;76;21035;-67
2022/07/02 09:16:11;;;;;;;6.00;2.40;;;27.20;48.40;;;;;;1883791;76;21051;-68
2022/07/02 09:18:40;;;;;;;4.97;2.30;;;27.30;48.90;;;;;;1881112;76;21028;-67
2022/07/02 09:21:10;;;;;;;6.20;2.17;;;27.30;47.50;;;;;;1869817;77;21012;-68
2022/07/02 09:23:48;;;;;;;6.50;1.95;;;27.30;48.00;;;;;;1885578;75;21067;-68
2022/07/02 09:26:22;;;;;;;2.87;1.92;;;27.40;47.80;;;;;;1889664;75;21035;-68
2022/07/02 09:29:03;;;;;;;4.33;2.02;;;27.40;45.60;;;;;;1890198;75;21551;-67
2022/07/02 09:31:34;;;;;;;4.05;1.92;;;27.40;45.60;;;;;;1890298;75;21106;-68
2022/07/02 09:34:03;;;;;;;9.58;2.15;;;27.40;43.60;;;;;;1887280;74;21008;-68
2022/07/02 09:36:36;;;;;;;4.03;1.75;;;27.40;45.20;;;;;;1890348;75;21101;-68
2022/07/02 09:39:06;;;;;;;8.18;2.33;;;27.50;43.60;;;;;;1890293;75;21082;-68
2022/07/02 09:41:37;;;;;;;3.15;1.65;;;27.50;44.40;;;;;;1890322;76;21086;-68
2022/07/02 09:44:07;;;;;;;7.03;1.82;;;27.60;43.50;;;;;;1889282;75;21102;-67
2022/07/02 09:46:37;;;;;;;6.75;1.85;;;27.40;43.30;;;;;;1890254;76;21049;-67
2022/07/02 09:49:11;;;;;;;9.18;3.45;;;27.20;44.30;;;;;;1890275;76;21093;-68
2022/07/02 09:51:53;;;;;;;6.03;1.87;;;27.20;44.30;;;;;;1891766;76;21035;-68
2022/07/02 09:54:24;;;;;;;2.92;1.98;;;27.20;44.40;;;;;;1899568;74;20997;-68
2022/07/02 09:56:55;;;;;;;4.95;2.27;;;27.30;43.60;;;;;;1892341;76;20999;-69
2022/07/02 09:59:25;;;;;;;9.33;2.22;;;27.30;44.00;;;;;;1901880;74;21507;-68
2022/07/02 10:01:54;;;;;;;8.28;2.25;;;27.30;43.50;;;;;;1912376;74;21117;-68
2022/07/02 10:04:31;;;;;;;4.25;2.22;;;27.30;43.20;;;;;;1881409;75;21014;-69
2022/07/02 10:07:00;;;;;;;3.37;2.10;;;27.20;44.20;;;;;;1887943;75;21026;-67
2022/07/02 10:09:30;;;;;;;2.62;1.70;;;27.30;43.90;;;;;;1892440;76;21043;-68
2022/07/02 10:12:00;;;;;;;4.12;2.00;;;27.40;43.40;;;;;;1892463;74;21061;-68
2022/07/02 10:14:32;;;;;;;2.87;2.25;;;27.40;42.90;;;;;;1892422;75;21076;-67
2022/07/02 10:17:02;;;;;;;4.10;2.25;;;27.40;43.00;;;;;;1896211;74;21128;-68
2022/07/02 10:19:33;;;;;;;6.45;3.05;;;27.40;43.20;;;;;;1899158;75;21023;-68
2022/07/02 10:22:03;;;;;;;2.58;1.85;;;27.40;41.70;;;;;;1898090;75;21132;-65
2022/07/02 10:24:34;;;;;;;4.15;2.45;;;27.50;41.20;;;;;;1901506;74;21055;-65
2022/07/02 10:27:04;;;;;;;3.10;2.00;;;27.50;41.10;;;;;;1902464;75;21031;-65
2022/07/02 10:29:34;;;;;;;4.78;2.30;;;27.60;41.00;;;;;;1900969;75;21108;-65
2022/07/02 10:32:10;;;;;;;6.22;1.82;;;27.70;41.10;;;;;;1901582;75;21121;-65
2022/07/02 10:34:45;;;;;;;4.50;1.50;;;27.80;39.40;;;;;;1902134;75;21074;-65
2022/07/02 10:37:16;;;;;;;2.35;1.35;;;27.80;40.10;;;;;;1902120;75;21110;-65
2022/07/02 10:39:46;;;;;;;2.80;1.30;;;27.90;40.50;;;;;;1902242;75;21094;-65
2022/07/02 10:42:16;;;;;;;7.75;1.60;;;27.90;38.60;;;;;;1902713;75;21007;-64
2022/07/02 10:44:47;;;;;;;2.65;1.20;;;27.90;39.10;;;;;;1902366;75;21098;-64
2022/07/02 10:47:26;;;;;;;2.98;1.50;;;28.00;39.60;;;;;;1901911;75;21541;-64
2022/07/02 10:50:00;;;;;;;2.60;1.30;;;28.00;38.90;;;;;;1902362;75;21114;-64
2022/07/02 10:52:49;;;;;;;6.97;1.45;;;28.00;37.90;;;;;;1836426;78;21078;-64
2022/07/02 10:55:29;;;;;;;7.87;2.00;;;28.00;38.80;;;;;;1868462;77;21116;-64
2022/07/02 10:58:03;;;;;;;3.45;1.42;;;28.00;38.30;;;;;;1862627;76;21105;-64
2022/07/02 11:00:38;;;;;;;2.00;1.67;;;28.00;38.30;;;;;;1863770;77;21472;-64
2022/07/02 11:03:27;;;;;;;6.05;1.00;;;28.00;38.30;;;;;;1863670;76;21073;-64
2022/07/02 11:06:05;;;;;;;3.10;1.52;;;28.00;38.00;;;;;;1863484;76;21041;-64
2022/07/02 11:08:49;;;;;;;4.50;3.08;;;28.00;37.70;;;;;;1863513;76;21111;-64
2022/07/02 11:11:37;;;;;;;7.72;1.87;;;27.90;37.90;;;;;;1863570;76;21085;-64
2022/07/02 11:14:14;;;;;;;4.90;1.62;;;27.80;38.20;;;;;;1863582;76;21041;-64
2022/07/02 11:16:48;;;;;;;7.25;3.85;;;27.80;38.30;;;;;;1863398;77;21107;-64
2022/07/02 11:19:25;;;;;;;4.40;1.30;;;27.80;38.40;;;;;;1863770;76;21057;-65
2022/07/02 11:21:59;;;;;;;3.90;1.17;;;27.80;38.20;;;;;;1863723;76;21049;-65
2022/07/02 11:24:30;;;;;;;2.27;1.07;;;27.90;38.30;;;;;;1863879;77;21143;-65
2022/07/02 11:27:03;;;;;;;8.15;1.25;;;27.90;38.00;;;;;;1894519;75;21074;-64
2022/07/02 11:29:32;;;;;;;4.45;1.30;;;28.00;37.60;;;;;;1894559;75;21105;-65
2022/07/02 11:32:02;;;;;;;3.70;1.92;;;28.00;37.40;;;;;;1894547;75;21031;-65
2022/07/02 11:34:46;;;;;;;2.25;1.10;;;27.90;36.90;;;;;;1894535;76;21039;-65
2022/07/02 11:37:32;;;;;;;5.87;1.27;;;28.00;37.10;;;;;;1898540;75;21113;-65
2022/07/02 11:40:22;;;;;;;4.37;1.20;;;28.00;36.50;;;;;;1889539;76;21134;-65
2022/07/02 11:42:51;;;;;;;7.95;1.87;;;28.10;36.40;;;;;;1890333;76;21105;-66
2022/07/02 11:45:20;;;;;;;4.40;1.30;;;28.10;36.50;;;;;;1856990;77;21063;-66
2022/07/02 11:47:52;;;;;;;10.78;1.65;;;28.10;36.10;;;;;;1890307;75;21039;-66
2022/07/02 11:50:35;;;;;;;16.35;2.85;;;28.10;36.40;;;;;;1856786;77;21125;-66
2022/07/02 11:53:06;;;;;;;5.17;1.30;;;28.10;35.20;;;;;;1890222;76;21457;-65
2022/07/02 11:55:35;;;;;;;3.27;1.07;;;28.20;35.20;;;;;;1856803;77;21058;-65
2022/07/02 11:58:04;;;;;;;4.78;1.17;;;28.10;34.50;;;;;;1890276;76;21035;-65
2022/07/02 12:00:34;;;;;;;4.35;1.57;;;28.10;34.30;;;;;;1856899;77;21039;-66
2022/07/02 12:03:13;;;;;;;7.50;2.12;;;28.10;34.30;;;;;;1890334;76;21039;-66
2022/07/02 12:05:53;;;;;;;3.02;1.40;;;28.10;34.10;;;;;;1856909;77;21074;-64
2022/07/02 12:08:22;;;;;;;2.47;1.60;;;28.10;33.90;;;;;;1890300;76;21047;-66
2022/07/02 12:10:53;;;;;;;1.98;1.20;;;28.20;34.60;;;;;;1856730;77;21055;-66
2022/07/02 12:13:27;;;;;;;6.47;2.10;;;28.20;34.50;;;;;;1886578;74;21113;-65
2022/07/02 12:15:56;;;;;;;4.85;1.62;;;28.20;34.30;;;;;;1890343;75;21053;-65
2022/07/02 12:18:26;;;;;;;7.58;1.47;;;28.20;34.70;;;;;;1890560;76;21099;-65
2022/07/02 12:20:55;;;;;;;7.03;1.30;;;28.20;34.60;;;;;;1890450;76;21026;-65
2022/07/02 12:23:25;;;;;;;3.25;1.10;;;28.20;34.60;;;;;;1890534;76;21026;-65
2022/07/02 12:25:54;;;;;;;2.80;1.10;;;28.30;35.00;;;;;;1890357;74;21029;-65
2022/07/02 12:31:11;;;;;;;6.22;1.70;;;28.30;34.70;;;;;;1890486;76;21034;-66
2022/07/02 12:33:41;;;;;;;5.67;1.10;;;28.30;34.90;;;;;;1890519;76;21022;-66
2022/07/02 12:36:10;;;;;;;6.33;1.20;;;28.30;35.30;;;;;;1890426;75;21050;-66
2022/07/02 12:38:46;;;;;;;1.75;1.10;;;28.30;35.10;;;;;;1890478;76;21099;-66
2022/07/02 12:41:15;;;;;;;2.47;1.02;;;28.30;35.10;;;;;;1890520;76;21006;-66
2022/07/02 12:43:55;;;;;;;1.72;1.00;;;28.30;35.40;;;;;;1890538;74;21091;-66
2022/07/02 12:46:24;;;;;;;4.75;1.10;;;28.30;35.10;;;;;;1890456;75;21021;-66
2022/07/02 12:48:53;;;;;;;4.00;0.90;;;28.30;35.50;;;;;;1890427;76;21030;-66
2022/07/02 12:51:23;;;;;;;1.95;1.00;;;28.40;35.30;;;;;;1890599;76;21088;-66
2022/07/02 12:53:58;;;;;;;3.62;2.30;;;28.30;34.60;;;;;;1890535;76;21038;-66
2022/07/02 12:56:28;;;;;;;4.85;0.85;;;28.30;34.80;;;;;;1890439;76;20998;-66
2022/07/02 12:58:58;;;;;;;5.35;0.80;;;28.30;34.20;;;;;;1890425;76;21010;-66
2022/07/02 13:01:27;;;;;;;7.00;1.17;;;28.30;34.50;;;;;;1890437;75;21076;-66
2022/07/02 13:03:58;;;;;;;5.87;1.47;;;28.20;33.30;;;;;;1890369;75;21089;-66
2022/07/02 13:06:27;;;;;;;3.22;0.80;;;28.20;33.60;;;;;;1890559;76;21010;-66
2022/07/02 13:08:57;;;;;;;2.10;1.12;;;28.20;32.80;;;;;;1890331;76;21084;-66
2022/07/02 13:11:27;;;;;;;1.82;0.93;;;28.20;33.40;;;;;;1890385;74;21057;-66